Time;durP1;ratioP1;P1;durP2;ratioP2;P2;SDS_P1;SDS_P2;PMS_P1;PMS_P2;Temp;Humidity;BMP_temperature;BMP_pressure;BME280_temperature;BME280_humidity;BME280_pressure;Samples;Min_cycle;Max_cycle;Signal;HPM_P1;HPM_P2
2022/04/11 00:00:32;;;;;;;12.15;5.05;;;1.10;99.90;;;;;;5029913;28;20505;-69
2022/04/11 00:02:58;;;;;;;10.98;3.85;;;1.10;99.90;;;;;;5047550;28;20123;-69
2022/04/11 00:05:24;;;;;;;11.55;3.90;;;1.10;99.90;;;;;;5054925;28;20049;-69
2022/04/11 00:07:49;;;;;;;8.90;3.78;;;1.00;99.90;;;;;;5026021;28;20047;-69
2022/04/11 00:10:16;;;;;;;8.45;3.67;;;1.00;99.90;;;;;;5060453;28;20048;-69
2022/04/11 00:12:42;;;;;;;8.27;3.45;;;1.00;99.90;;;;;;5047168;28;20028;-69
2022/04/11 00:15:08;;;;;;;10.20;3.55;;;1.00;99.90;;;;;;5025660;28;20097;-78
2022/04/11 00:17:35;;;;;;;8.60;3.70;;;1.00;99.90;;;;;;5034422;28;20045;-79
2022/04/11 00:20:01;;;;;;;7.72;3.70;;;0.90;99.90;;;;;;5052347;28;20435;-79
2022/04/11 00:22:27;;;;;;;7.78;3.25;;;0.90;99.90;;;;;;5059771;28;20040;-77
2022/04/11 00:24:52;;;;;;;10.73;3.47;;;0.90;99.90;;;;;;5049204;28;20442;-78
2022/04/11 00:27:18;;;;;;;6.78;3.25;;;0.90;99.90;;;;;;5029163;28;20045;-78
2022/04/11 00:29:44;;;;;;;12.88;3.30;;;0.90;99.90;;;;;;5065930;28;20048;-79
2022/04/11 00:32:10;;;;;;;9.60;3.28;;;0.80;99.90;;;;;;5037732;28;20052;-78
2022/04/11 00:34:36;;;;;;;7.50;3.40;;;0.80;99.90;;;;;;5053695;28;20053;-79
2022/04/11 00:37:02;;;;;;;7.70;3.28;;;0.70;99.90;;;;;;5052199;28;20047;-79
2022/04/11 00:39:27;;;;;;;8.73;3.67;;;0.70;99.90;;;;;;5055321;28;20041;-78
2022/04/11 00:41:53;;;;;;;10.63;3.83;;;0.70;99.90;;;;;;5042343;28;20044;-78
2022/04/11 00:44:19;;;;;;;9.88;3.92;;;0.70;99.90;;;;;;5058702;28;20052;-78
2022/04/11 00:46:44;;;;;;;9.90;4.03;;;0.90;99.90;;;;;;5057950;28;20071;-78
2022/04/11 00:49:10;;;;;;;9.48;3.13;;;0.70;99.90;;;;;;5048203;28;20036;-78
2022/04/11 00:51:36;;;;;;;13.73;3.53;;;0.70;99.90;;;;;;5068391;28;20040;-77
2022/04/11 00:54:04;;;;;;;10.95;3.58;;;0.70;99.90;;;;;;5043871;28;20047;-78
2022/04/11 00:56:30;;;;;;;9.68;3.28;;;0.70;99.90;;;;;;5047681;28;20107;-78
2022/04/11 00:59:01;;;;;;;8.13;3.30;;;0.70;99.90;;;;;;5042312;28;20036;-78
2022/04/11 01:01:27;;;;;;;;;;;0.70;99.90;;;;;;5051293;28;20036;-78
2022/04/11 01:03:52;;;;;;;6.95;2.72;;;0.60;99.90;;;;;;5043387;28;19924;-78
2022/04/11 01:06:18;;;;;;;8.80;3.20;;;0.70;99.90;;;;;;5033952;28;20141;-78
2022/04/11 01:08:44;;;;;;;6.47;2.90;;;0.60;99.90;;;;;;5031899;28;20649;-78
2022/04/11 01:11:10;;;;;;;9.55;3.25;;;0.60;99.90;;;;;;5050238;28;20051;-78
2022/04/11 01:13:37;;;;;;;11.98;3.13;;;0.60;99.90;;;;;;5050198;28;20036;-77
2022/04/11 01:16:04;;;;;;;12.23;3.35;;;0.60;99.90;;;;;;5067925;28;20456;-79
2022/04/11 01:18:34;;;;;;;7.55;3.10;;;0.60;99.90;;;;;;5034184;28;20035;-78
2022/04/11 01:21:01;;;;;;;8.20;3.22;;;0.60;99.90;;;;;;5042073;28;20047;-78
2022/04/11 01:23:26;;;;;;;6.57;3.03;;;0.60;99.90;;;;;;5033567;28;20041;-78
2022/04/11 01:25:53;;;;;;;10.38;3.38;;;0.50;99.90;;;;;;5051192;28;20056;-78
2022/04/11 01:28:23;;;;;;;6.93;2.72;;;0.50;99.90;;;;;;5043650;28;20048;-78
2022/04/11 01:30:55;;;;;;;8.75;2.67;;;0.60;99.90;;;;;;5052577;28;20387;-78
2022/04/11 01:33:27;;;;;;;6.55;2.80;;;0.50;99.90;;;;;;5060174;28;20038;-78
2022/04/11 01:35:53;;;;;;;7.13;2.72;;;0.50;99.90;;;;;;5054096;28;20040;-78
2022/04/11 01:38:19;;;;;;;6.93;2.80;;;0.60;99.90;;;;;;5061512;28;20513;-78
2022/04/11 01:40:53;;;;;;;6.20;2.35;;;0.50;99.90;;;;;;5050248;28;20479;-79
2022/04/11 01:43:19;;;;;;;11.50;2.90;;;0.60;99.90;;;;;;5047322;28;20437;-78
2022/04/11 01:45:45;;;;;;;6.80;2.83;;;0.90;99.90;;;;;;5049113;28;20048;-78
2022/04/11 01:48:11;;;;;;;6.53;2.50;;;0.50;99.90;;;;;;5043245;28;20037;-78
2022/04/11 01:50:37;;;;;;;8.48;2.40;;;0.50;99.90;;;;;;5035624;28;20513;-78
2022/04/11 01:53:07;;;;;;;6.30;2.60;;;0.50;99.90;;;;;;5027765;28;20036;-78
2022/04/11 01:55:32;;;;;;;9.25;2.40;;;0.50;99.90;;;;;;5041245;28;20053;-79
2022/04/11 01:57:59;;;;;;;9.68;3.10;;;0.60;99.90;;;;;;5049002;28;20045;-78
2022/04/11 02:00:24;;;;;;;5.55;2.40;;;0.50;99.90;;;;;;5029704;28;20450;-78
2022/04/11 02:02:50;;;;;;;7.47;3.10;;;0.60;99.90;;;;;;5030533;28;20051;-77
2022/04/11 02:05:16;;;;;;;6.50;2.72;;;0.60;99.90;;;;;;5044331;28;20047;-78
2022/04/11 02:07:41;;;;;;;7.72;2.85;;;0.50;99.90;;;;;;5044395;28;20367;-77
2022/04/11 02:10:07;;;;;;;8.52;2.95;;;0.60;99.90;;;;;;5045925;28;20436;-77
2022/04/11 02:12:33;;;;;;;6.95;2.60;;;0.60;99.90;;;;;;5046616;28;20473;-78
2022/04/11 02:14:59;;;;;;;6.80;3.25;;;0.60;99.90;;;;;;5047753;28;20114;-77
2022/04/11 02:17:25;;;;;;;7.00;2.47;;;0.60;99.90;;;;;;5045108;28;20049;-77
2022/04/11 02:19:50;;;;;;;6.30;2.65;;;0.50;99.90;;;;;;5046619;28;20037;-78
2022/04/11 02:22:16;;;;;;;7.20;2.45;;;0.50;99.90;;;;;;5045247;28;20051;-78
2022/04/11 02:24:41;;;;;;;10.13;2.63;;;0.50;99.90;;;;;;5044513;28;20049;-78
2022/04/11 02:27:07;;;;;;;8.52;2.92;;;0.50;99.90;;;;;;5024763;28;20087;-77
2022/04/11 02:29:33;;;;;;;6.72;2.63;;;0.50;99.90;;;;;;5037830;28;20049;-79
2022/04/11 02:31:58;;;;;;;6.70;2.10;;;0.40;99.90;;;;;;5045265;28;20056;-76
2022/04/11 02:34:25;;;;;;;6.60;2.65;;;0.40;99.90;;;;;;5028078;28;20056;-76
2022/04/11 02:36:51;;;;;;;8.10;2.33;;;0.40;99.90;;;;;;5039140;28;20179;-77
2022/04/11 02:39:17;;;;;;;6.78;2.58;;;0.60;99.90;;;;;;5035308;28;20076;-75
2022/04/11 02:41:42;;;;;;;8.40;2.92;;;0.40;99.90;;;;;;5043137;28;20037;-77
2022/04/11 02:44:08;;;;;;;7.72;2.45;;;0.30;99.90;;;;;;5019408;28;21374;-77
2022/04/11 02:46:34;;;;;;;6.38;2.40;;;0.30;99.90;;;;;;5034865;28;20037;-77
2022/04/11 02:48:59;;;;;;;8.77;2.30;;;0.30;99.90;;;;;;5046885;28;20051;-76
2022/04/11 02:51:25;;;;;;;5.60;2.22;;;0.30;99.90;;;;;;5050973;28;20071;-76
2022/04/11 02:53:51;;;;;;;6.25;2.28;;;0.30;99.90;;;;;;5047374;28;20076;-76
2022/04/11 02:56:16;;;;;;;6.78;2.35;;;0.20;99.90;;;;;;5043853;28;20060;-77
2022/04/11 02:58:42;;;;;;;7.15;2.53;;;0.20;99.90;;;;;;5039151;28;20077;-78
2022/04/11 03:01:08;;;;;;;6.47;2.42;;;0.20;99.90;;;;;;5047733;28;20072;-78
2022/04/11 03:03:36;;;;;;;7.25;2.85;;;0.20;99.90;;;;;;5045853;28;20152;-68
2022/04/11 03:06:02;;;;;;;6.88;2.47;;;0.10;99.90;;;;;;5027985;28;20041;-77
2022/04/11 03:08:28;;;;;;;7.32;2.97;;;0.10;99.90;;;;;;5043160;28;20053;-68
2022/04/11 03:10:54;;;;;;;7.10;2.85;;;0.10;99.90;;;;;;5044503;28;20122;-68
2022/04/11 03:13:20;;;;;;;6.30;2.70;;;0.10;99.90;;;;;;5043339;28;20060;-68
2022/04/11 03:15:46;;;;;;;6.82;2.45;;;0.20;99.90;;;;;;5038191;28;20131;-70
2022/04/11 03:18:12;;;;;;;6.80;2.55;;;0.10;99.90;;;;;;5045215;28;20132;-68
2022/04/11 03:20:38;;;;;;;8.50;2.60;;;0.10;99.90;;;;;;5028202;28;20041;-68
2022/04/11 03:23:03;;;;;;;6.05;2.33;;;0.00;99.90;;;;;;5043032;28;20041;-68
2022/04/11 03:25:29;;;;;;;6.97;2.40;;;0.10;99.90;;;;;;5031595;28;20077;-68
2022/04/11 03:27:55;;;;;;;8.25;2.42;;;0.00;99.90;;;;;;5027824;28;20041;-68
2022/04/11 03:30:21;;;;;;;7.25;2.58;;;0.10;99.90;;;;;;5045751;28;20045;-68
2022/04/11 03:32:47;;;;;;;7.28;2.53;;;0.10;99.90;;;;;;5045325;28;20091;-68
2022/04/11 03:35:13;;;;;;;4.93;2.20;;;0.10;99.90;;;;;;5041654;28;20048;-68
2022/04/11 03:37:39;;;;;;;8.05;2.35;;;0.20;99.90;;;;;;5042080;28;20125;-68
2022/04/11 03:40:07;;;;;;;9.82;2.65;;;0.20;99.90;;;;;;5046374;28;20524;-68
2022/04/11 03:42:33;;;;;;;8.10;2.40;;;0.20;99.90;;;;;;5042495;28;20096;-68
2022/04/11 03:44:58;;;;;;;8.93;3.10;;;0.30;99.90;;;;;;5045364;28;20045;-68
2022/04/11 03:47:24;;;;;;;6.78;2.53;;;0.20;99.90;;;;;;5043115;28;20056;-68
2022/04/11 03:49:49;;;;;;;11.25;2.80;;;0.30;99.90;;;;;;5042860;28;20037;-68
2022/04/11 03:52:18;;;;;;;7.40;2.60;;;0.30;99.90;;;;;;5043135;28;20410;-68
2022/04/11 03:54:44;;;;;;;6.25;2.63;;;0.30;99.90;;;;;;5048659;28;20052;-68
2022/04/11 03:57:09;;;;;;;4.82;2.33;;;0.40;99.90;;;;;;5048463;28;20412;-68
2022/04/11 03:59:35;;;;;;;8.00;2.78;;;0.40;99.90;;;;;;5044528;28;20372;-68
2022/04/11 04:02:01;;;;;;;10.38;2.85;;;0.40;99.90;;;;;;5033300;28;20055;-68
2022/04/11 04:04:26;;;;;;;5.25;2.00;;;0.40;99.90;;;;;;5049080;28;20409;-68
2022/04/11 04:06:52;;;;;;;8.13;3.25;;;0.50;99.90;;;;;;5042578;28;20068;-68
2022/04/11 04:09:17;;;;;;;6.50;2.40;;;0.50;99.90;;;;;;5042542;28;20051;-68
2022/04/11 04:11:43;;;;;;;7.85;2.60;;;0.50;99.90;;;;;;5064608;28;20041;-68
2022/04/11 04:14:09;;;;;;;8.25;2.55;;;0.50;99.90;;;;;;5043423;28;20574;-68
2022/04/11 04:16:35;;;;;;;5.57;2.10;;;0.50;99.90;;;;;;5046806;28;20049;-68
2022/04/11 04:19:02;;;;;;;6.45;2.30;;;0.60;99.90;;;;;;5057464;28;20463;-67
2022/04/11 04:21:28;;;;;;;6.57;2.30;;;0.60;99.90;;;;;;5040671;28;20044;-68
2022/04/11 04:23:53;;;;;;;8.88;2.60;;;0.60;99.90;;;;;;5062707;28;20435;-68
2022/04/11 04:26:19;;;;;;;8.63;2.67;;;0.70;99.90;;;;;;5069854;28;20052;-68
2022/04/11 04:28:45;;;;;;;7.63;2.58;;;0.70;99.90;;;;;;5069999;28;20032;-68
2022/04/11 04:31:10;;;;;;;8.13;2.80;;;0.70;99.90;;;;;;5050771;28;20036;-68
2022/04/11 04:33:36;;;;;;;5.70;2.38;;;0.70;99.90;;;;;;5050871;28;20493;-69
2022/04/11 04:36:02;;;;;;;5.13;2.53;;;0.70;99.90;;;;;;5033314;28;20037;-68
2022/04/11 04:38:27;;;;;;;7.22;2.47;;;0.70;99.90;;;;;;5050584;28;20090;-68
2022/04/11 04:40:53;;;;;;;7.32;3.08;;;0.70;99.90;;;;;;5047249;28;20051;-68
2022/04/11 04:43:18;;;;;;;8.25;2.63;;;0.70;99.90;;;;;;5058273;28;20048;-67
2022/04/11 04:45:45;;;;;;;7.45;2.60;;;0.80;99.90;;;;;;5057522;28;20059;-67
2022/04/11 04:48:11;;;;;;;7.63;2.53;;;0.80;99.90;;;;;;5046286;28;20535;-68
2022/04/11 04:50:37;;;;;;;9.63;2.53;;;0.80;99.90;;;;;;5034353;28;20102;-68
2022/04/11 04:53:02;;;;;;;8.00;2.42;;;0.90;99.90;;;;;;5056775;28;20716;-69
2022/04/11 04:55:28;;;;;;;8.88;2.70;;;1.60;99.90;;;;;;5049639;28;20421;-69
2022/04/11 04:57:54;;;;;;;5.32;2.22;;;0.90;99.90;;;;;;5054421;28;20048;-69
2022/04/11 05:00:19;;;;;;;8.23;2.72;;;0.90;99.90;;;;;;5043198;28;20179;-69
2022/04/11 05:02:45;;;;;;;6.57;2.50;;;1.00;99.90;;;;;;5062290;28;20033;-69
2022/04/11 05:05:12;;;;;;;6.30;2.65;;;1.00;99.90;;;;;;5025272;28;20036;-69
2022/04/11 05:07:38;;;;;;;8.40;2.90;;;1.00;99.90;;;;;;5046712;28;20043;-69
2022/04/11 05:10:04;;;;;;;7.80;3.10;;;1.60;99.90;;;;;;5050374;28;20047;-69
2022/04/11 05:12:38;;;;;;;8.93;2.90;;;1.10;99.90;;;;;;5066257;28;20459;-67
2022/04/11 05:15:05;;;;;;;11.50;3.90;;;1.20;99.90;;;;;;5050288;28;20508;-69
2022/04/11 05:17:31;;;;;;;9.82;2.72;;;1.20;99.90;;;;;;5052022;28;20106;-69
2022/04/11 05:19:56;;;;;;;10.40;3.20;;;1.30;99.90;;;;;;5028907;28;20463;-68
2022/04/11 05:22:22;;;;;;;8.07;3.10;;;1.30;99.90;;;;;;5048753;28;20132;-69
2022/04/11 05:24:48;;;;;;;7.05;3.30;;;1.30;99.90;;;;;;5040560;28;20131;-68
2022/04/11 05:27:13;;;;;;;6.63;2.63;;;1.40;99.90;;;;;;5060001;28;20049;-68
2022/04/11 05:29:39;;;;;;;7.72;3.00;;;1.40;99.90;;;;;;5037128;28;20388;-69
2022/04/11 05:32:05;;;;;;;11.75;3.15;;;1.40;99.90;;;;;;5055802;28;20040;-70
2022/04/11 05:34:30;;;;;;;8.93;3.35;;;1.50;99.90;;;;;;5046784;28;20040;-68
2022/04/11 05:36:56;;;;;;;11.10;3.25;;;1.60;99.90;;;;;;5051286;28;20083;-68
2022/04/11 05:39:22;;;;;;;9.70;2.90;;;1.60;99.90;;;;;;5051411;28;20041;-69
2022/04/11 05:41:47;;;;;;;8.73;2.97;;;1.60;99.90;;;;;;5055721;28;20290;-68
2022/04/11 05:44:13;;;;;;;6.60;2.92;;;1.70;99.90;;;;;;5048966;28;20042;-68
2022/04/11 05:46:38;;;;;;;10.05;2.95;;;1.90;99.90;;;;;;5034988;28;20036;-68
2022/04/11 05:49:04;;;;;;;10.77;3.13;;;1.80;99.90;;;;;;5045634;28;20205;-68
2022/04/11 05:51:30;;;;;;;8.98;2.95;;;1.90;99.90;;;;;;5062042;28;20194;-68
2022/04/11 05:53:55;;;;;;;6.50;2.90;;;1.90;99.90;;;;;;5046059;28;20054;-69
2022/04/11 05:56:21;;;;;;;8.10;3.03;;;1.90;99.90;;;;;;5047657;28;20140;-68
2022/04/11 05:58:47;;;;;;;10.23;2.90;;;2.00;99.90;;;;;;5017856;28;20552;-68
2022/04/11 06:01:12;;;;;;;11.60;3.15;;;2.00;99.90;;;;;;5040562;28;20041;-70
2022/04/11 06:03:38;;;;;;;8.95;3.53;;;2.10;99.90;;;;;;5063294;28;20036;-68
2022/04/11 06:06:05;;;;;;;13.30;3.65;;;2.20;99.90;;;;;;5043856;28;20052;-68
2022/04/11 06:08:31;;;;;;;8.38;3.10;;;2.20;99.90;;;;;;5066651;28;20054;-69
2022/04/11 06:10:57;;;;;;;7.72;2.95;;;2.20;99.90;;;;;;5067551;28;20036;-68
2022/04/11 06:13:22;;;;;;;7.88;2.88;;;2.30;99.90;;;;;;5042517;28;20482;-68
2022/04/11 06:15:48;;;;;;;7.53;2.65;;;2.40;99.90;;;;;;5076359;28;20044;-68
2022/04/11 06:18:14;;;;;;;9.13;2.70;;;2.40;99.90;;;;;;5051971;28;20047;-68
2022/04/11 06:20:39;;;;;;;9.40;2.97;;;2.50;99.90;;;;;;5069063;28;20048;-68
2022/04/11 06:23:05;;;;;;;9.00;2.85;;;2.50;99.90;;;;;;5058674;28;20036;-69
2022/04/11 06:25:31;;;;;;;8.20;3.00;;;2.50;99.90;;;;;;5047980;28;20048;-68
2022/04/11 06:27:56;;;;;;;9.93;3.25;;;2.60;99.90;;;;;;5036449;28;20040;-68
2022/04/11 06:30:22;;;;;;;6.80;2.80;;;2.60;99.90;;;;;;5064031;28;20074;-68
2022/04/11 06:32:48;;;;;;;10.52;3.47;;;2.70;99.90;;;;;;5048676;28;20036;-68
2022/04/11 06:35:14;;;;;;;15.13;3.65;;;3.00;99.90;;;;;;5073469;28;20501;-68
2022/04/11 06:37:40;;;;;;;7.63;2.80;;;2.80;99.90;;;;;;5035592;28;20051;-68
2022/04/11 06:40:06;;;;;;;6.70;3.15;;;2.80;99.90;;;;;;5045716;28;20048;-69
2022/04/11 06:42:31;;;;;;;9.63;2.90;;;2.90;99.90;;;;;;5070855;28;20392;-68
2022/04/11 06:44:57;;;;;;;9.85;3.35;;;3.00;99.90;;;;;;5060777;28;20041;-68
2022/04/11 06:47:23;;;;;;;8.50;2.55;;;3.10;99.90;;;;;;5052798;28;20060;-68
2022/04/11 06:49:49;;;;;;;7.90;3.00;;;3.20;99.90;;;;;;5048798;28;20667;-68
2022/04/11 06:52:14;;;;;;;7.47;2.78;;;3.30;99.90;;;;;;5075658;28;20048;-68
2022/04/11 06:54:40;;;;;;;7.72;3.10;;;3.40;99.90;;;;;;5076497;28;20519;-69
2022/04/11 06:57:06;;;;;;;9.77;2.85;;;3.50;99.90;;;;;;5050287;28;20074;-68
2022/04/11 06:59:32;;;;;;;11.23;3.35;;;3.60;99.90;;;;;;5055974;28;20035;-68
2022/04/11 07:01:57;;;;;;;10.27;2.60;;;3.80;99.90;;;;;;5048950;28;20048;-68
2022/04/11 07:04:23;;;;;;;11.68;3.10;;;3.90;99.90;;;;;;5064063;28;20048;-68
2022/04/11 07:06:49;;;;;;;6.05;2.30;;;4.00;99.90;;;;;;5056169;28;20032;-68
2022/04/11 07:09:15;;;;;;;8.88;2.60;;;4.10;99.90;;;;;;5071332;28;20516;-68
2022/04/11 07:11:41;;;;;;;8.95;2.67;;;4.20;99.90;;;;;;5074305;28;20041;-69
2022/04/11 07:14:07;;;;;;;8.32;2.67;;;4.30;99.90;;;;;;5079326;28;20055;-69
2022/04/11 07:16:32;;;;;;;8.32;2.45;;;4.40;99.90;;;;;;5048646;28;20044;-68
2022/04/11 07:18:58;;;;;;;9.43;2.58;;;4.50;99.90;;;;;;5044431;28;20125;-68
2022/04/11 07:21:24;;;;;;;7.15;2.72;;;4.60;99.90;;;;;;5047553;28;20563;-68
2022/04/11 07:23:50;;;;;;;7.30;2.13;;;4.70;99.90;;;;;;5052590;28;20079;-69
2022/04/11 07:26:15;;;;;;;8.25;2.38;;;4.80;99.90;;;;;;5043656;28;20095;-69
2022/04/11 07:28:41;;;;;;;9.00;2.20;;;4.90;99.90;;;;;;5061231;28;20055;-69
2022/04/11 07:31:07;;;;;;;7.60;2.10;;;5.00;99.90;;;;;;5054596;28;20045;-68
2022/04/11 07:33:33;;;;;;;8.27;2.00;;;5.10;99.90;;;;;;5076196;28;20074;-68
2022/04/11 07:35:59;;;;;;;5.47;2.38;;;5.20;99.90;;;;;;5031901;28;20037;-68
2022/04/11 07:38:24;;;;;;;7.43;1.88;;;5.30;99.90;;;;;;5046933;28;20089;-69
2022/04/11 07:40:51;;;;;;;6.57;1.90;;;5.40;99.90;;;;;;5054975;28;20048;-69
2022/04/11 07:43:17;;;;;;;5.80;1.77;;;5.50;99.90;;;;;;5061934;28;22022;-68
2022/04/11 07:45:43;;;;;;;8.32;2.13;;;5.60;99.90;;;;;;5037230;28;20043;-68
2022/04/11 07:48:09;;;;;;;5.93;1.80;;;5.80;99.90;;;;;;5050261;28;20539;-68
2022/04/11 07:50:35;;;;;;;4.80;1.77;;;5.80;99.90;;;;;;5059023;28;20135;-69
2022/04/11 07:53:01;;;;;;;6.53;2.10;;;6.00;99.90;;;;;;5028431;28;20071;-68
2022/04/11 07:55:27;;;;;;;10.93;2.03;;;6.10;99.90;;;;;;5047670;28;20053;-69
2022/04/11 07:57:53;;;;;;;6.70;1.80;;;6.30;99.90;;;;;;5071003;28;20984;-69
2022/04/11 08:00:19;;;;;;;9.68;1.98;;;6.50;99.90;;;;;;5058460;28;20045;-68
2022/04/11 08:02:45;;;;;;;6.43;1.50;;;7.30;99.90;;;;;;5039215;28;20412;-68
2022/04/11 08:05:11;;;;;;;5.40;1.65;;;6.80;99.90;;;;;;5064137;28;20045;-69
2022/04/11 08:07:36;;;;;;;9.13;1.83;;;6.90;99.90;;;;;;5048894;28;20051;-69
2022/04/11 08:10:03;;;;;;;7.28;1.70;;;7.20;99.90;;;;;;5039947;28;20037;-69
2022/04/11 08:12:30;;;;;;;6.85;1.75;;;7.50;99.90;;;;;;5032250;28;20147;-70
2022/04/11 08:14:56;;;;;;;4.13;1.52;;;7.90;99.90;;;;;;5049567;28;20048;-67
2022/04/11 08:17:22;;;;;;;5.97;1.77;;;8.20;99.90;;;;;;5068561;28;20096;-67
2022/04/11 08:19:47;;;;;;;6.35;1.70;;;8.40;99.90;;;;;;5053099;28;20036;-67
2022/04/11 08:22:13;;;;;;;7.57;1.63;;;8.40;99.90;;;;;;5045995;28;20036;-67
2022/04/11 08:24:39;;;;;;;7.78;1.40;;;8.80;99.90;;;;;;5050713;28;20041;-67
2022/04/11 08:27:04;;;;;;;10.23;1.98;;;8.50;99.90;;;;;;5063724;28;20518;-67
2022/04/11 08:29:30;;;;;;;6.10;2.10;;;8.60;99.90;;;;;;5038348;28;20105;-67
2022/04/11 08:31:56;;;;;;;6.00;1.73;;;8.70;99.90;;;;;;5055168;28;20147;-67
2022/04/11 08:34:21;;;;;;;7.55;1.98;;;8.70;99.90;;;;;;5052559;28;20041;-67
2022/04/11 08:36:48;;;;;;;5.15;1.77;;;8.90;99.90;;;;;;5057249;28;20121;-67
2022/04/11 08:39:14;;;;;;;4.97;1.67;;;9.00;99.90;;;;;;5076130;28;20044;-67
2022/04/11 08:41:40;;;;;;;5.97;1.48;;;9.20;99.90;;;;;;5056984;28;20504;-69
2022/04/11 08:44:06;;;;;;;6.32;1.80;;;9.50;99.90;;;;;;5059807;28;20036;-68
2022/04/11 08:46:33;;;;;;;6.15;1.70;;;9.80;99.90;;;;;;5060798;28;20087;-69
2022/04/11 08:49:04;;;;;;;6.07;1.92;;;10.00;99.90;;;;;;5053843;28;20093;-69
2022/04/11 08:51:33;;;;;;;7.07;1.97;;;10.30;99.90;;;;;;5081666;28;20473;-69
2022/04/11 08:54:05;;;;;;;5.63;1.40;;;10.50;99.90;;;;;;5070730;28;20301;-68
2022/04/11 08:56:31;;;;;;;6.07;2.20;;;10.70;99.90;;;;;;5052936;28;20062;-69
2022/04/11 08:58:57;;;;;;;6.50;1.80;;;10.90;99.90;;;;;;5037003;28;20066;-69
2022/04/11 09:01:23;;;;;;;6.70;1.73;;;11.10;99.90;;;;;;5053815;28;20400;-68
2022/04/11 09:03:49;;;;;;;5.65;1.67;;;11.20;99.90;;;;;;5057519;28;20469;-68
2022/04/11 09:06:17;;;;;;;7.95;1.70;;;11.30;99.90;;;;;;5052974;28;20127;-69
2022/04/11 09:08:55;;;;;;;4.00;1.42;;;11.50;99.90;;;;;;5076394;28;20424;-69
2022/04/11 09:11:29;;;;;;;7.00;1.92;;;11.60;99.90;;;;;;5063770;28;20032;-69
2022/04/11 09:13:56;;;;;;;4.97;1.38;;;11.70;99.90;;;;;;5058377;28;20048;-69
2022/04/11 09:16:21;;;;;;;6.47;1.48;;;11.80;99.90;;;;;;5055775;28;20055;-69
2022/04/11 09:18:52;;;;;;;5.68;1.65;;;12.00;99.90;;;;;;5060990;28;20473;-69
2022/04/11 09:21:23;;;;;;;6.55;1.20;;;12.00;99.90;;;;;;5058285;28;20043;-70
2022/04/11 09:23:50;;;;;;;4.53;1.65;;;12.10;99.90;;;;;;5037764;28;20048;-69
2022/04/11 09:26:20;;;;;;;6.00;1.40;;;12.40;99.90;;;;;;5068114;28;20044;-69
2022/04/11 09:29:04;;;;;;;7.00;1.60;;;12.40;99.90;;;;;;5037939;28;20051;-69
2022/04/11 09:31:31;;;;;;;7.65;1.20;;;12.60;99.90;;;;;;5038430;28;20371;-69
2022/04/11 09:33:58;;;;;;;4.00;1.35;;;13.00;99.90;;;;;;5053083;28;20075;-69
2022/04/11 09:36:42;;;;;;;7.47;1.58;;;12.80;99.90;;;;;;5058117;28;20596;-69
2022/04/11 09:39:08;;;;;;;5.38;1.38;;;12.90;99.50;;;;;;5077604;28;20036;-69
2022/04/11 09:41:34;;;;;;;5.68;1.60;;;12.80;99.80;;;;;;5046281;28;20519;-70
2022/04/11 09:44:25;;;;;;;7.07;1.73;;;12.90;96.50;;;;;;5086141;28;20503;-70
2022/04/11 09:46:52;;;;;;;6.75;1.85;;;12.90;96.20;;;;;;5060512;28;20044;-69
2022/04/11 09:49:18;;;;;;;4.53;1.27;;;12.90;95.90;;;;;;5046871;28;20036;-70
2022/04/11 09:52:26;;;;;;;4.47;1.30;;;12.80;91.10;;;;;;5040502;28;20295;-70
2022/04/11 09:54:57;;;;;;;6.85;1.50;;;12.90;92.80;;;;;;5049671;28;21479;-70
2022/04/11 09:57:26;;;;;;;5.90;1.30;;;13.00;95.20;;;;;;5028873;28;20093;-70
2022/04/11 09:59:54;;;;;;;6.32;1.40;;;13.10;93.00;;;;;;5048635;28;21623;-70
2022/04/11 10:02:21;;;;;;;5.55;1.42;;;13.20;91.90;;;;;;5070736;28;21037;-70
2022/04/11 10:04:48;;;;;;;6.70;1.48;;;13.10;91.50;;;;;;5065172;28;20049;-70
2022/04/11 10:07:14;;;;;;;4.78;1.30;;;13.00;90.10;;;;;;5053927;28;20405;-70
2022/04/11 10:09:40;;;;;;;7.60;1.45;;;13.00;87.40;;;;;;5048562;28;20140;-69
2022/04/11 10:12:06;;;;;;;5.80;1.17;;;13.00;90.30;;;;;;5050303;28;20044;-69
2022/04/11 10:14:33;;;;;;;3.78;1.25;;;13.00;81.90;;;;;;5065040;28;20256;-70
2022/04/11 10:17:01;;;;;;;6.18;1.60;;;13.00;77.60;;;;;;5075969;28;20423;-70
2022/04/11 10:19:29;;;;;;;6.13;1.65;;;13.00;80.60;;;;;;5073758;28;20398;-69
2022/04/11 10:22:00;;;;;;;5.82;1.80;;;13.00;84.00;;;;;;5053739;28;20129;-70
2022/04/11 10:24:34;;;;;;;4.43;1.35;;;13.00;83.30;;;;;;5035009;28;20105;-69
2022/04/11 10:27:20;;;;;;;6.57;1.42;;;13.00;81.00;;;;;;5067241;28;20379;-69
2022/04/11 10:29:49;;;;;;;6.20;1.90;;;13.10;80.40;;;;;;5053791;28;20519;-68
2022/04/11 10:32:25;;;;;;;7.70;1.80;;;13.10;79.40;;;;;;5066316;28;20044;-69
2022/04/11 10:35:09;;;;;;;6.47;1.73;;;13.00;82.30;;;;;;5043973;28;20143;-71
2022/04/11 10:37:41;;;;;;;9.13;2.15;;;13.10;81.80;;;;;;5052783;28;20432;-68
2022/04/11 10:40:15;;;;;;;5.10;1.75;;;13.20;82.40;;;;;;5052192;28;20199;-68
2022/04/11 10:43:12;;;;;;;4.97;2.10;;;13.20;84.80;;;;;;5013793;28;20052;-69
2022/04/11 10:45:40;;;;;;;6.18;2.10;;;13.00;81.00;;;;;;5047813;28;20050;-69
2022/04/11 10:48:08;;;;;;;5.35;1.85;;;13.10;84.10;;;;;;5039917;28;20344;-70
2022/04/11 10:50:34;;;;;;;9.13;2.20;;;13.10;80.80;;;;;;5052017;28;20048;-69
2022/04/11 10:53:27;;;;;;;6.43;1.92;;;13.20;84.60;;;;;;5011025;28;20123;-69
2022/04/11 10:56:05;;;;;;;8.32;2.83;;;13.30;84.60;;;;;;5017269;28;20056;-69
2022/04/11 10:58:51;;;;;;;7.75;2.33;;;13.40;81.20;;;;;;5030822;28;20516;-69
2022/04/11 11:01:55;;;;;;;7.90;2.15;;;13.30;79.40;;;;;;5073374;28;20051;-70
2022/04/11 11:04:25;;;;;;;6.18;2.15;;;13.40;80.40;;;;;;5071174;28;20039;-69
2022/04/11 11:07:23;;;;;;;6.72;1.98;;;13.50;84.30;;;;;;5057265;28;20057;-69
2022/04/11 11:09:57;;;;;;;10.82;2.15;;;13.50;81.60;;;;;;5024030;28;20048;-69
2022/04/11 11:12:23;;;;;;;8.48;2.50;;;13.40;80.30;;;;;;5078833;28;20047;-69
2022/04/11 11:14:49;;;;;;;6.70;2.08;;;13.40;78.20;;;;;;5066820;28;20040;-70
2022/04/11 11:17:14;;;;;;;7.55;2.50;;;13.40;82.10;;;;;;5051371;28;20421;-69
2022/04/11 11:20:08;;;;;;;8.43;2.38;;;13.50;80.20;;;;;;5053854;28;20067;-69
2022/04/11 11:22:54;;;;;;;5.15;2.25;;;13.50;79.90;;;;;;5063902;28;20075;-69
2022/04/11 11:25:20;;;;;;;7.13;2.22;;;13.50;79.60;;;;;;5053345;28;20051;-69
2022/04/11 11:27:49;;;;;;;5.55;2.10;;;13.60;81.30;;;;;;5040929;28;20106;-69
2022/04/11 11:30:15;;;;;;;6.32;2.38;;;13.80;82.20;;;;;;5033430;28;20133;-70
2022/04/11 11:32:41;;;;;;;6.57;2.50;;;13.80;78.20;;;;;;5062794;28;20035;-69
2022/04/11 11:35:11;;;;;;;5.68;2.00;;;13.70;73.50;;;;;;5037121;28;20418;-69
2022/04/11 11:37:38;;;;;;;7.28;2.17;;;13.70;77.60;;;;;;5034308;28;20470;-69
2022/04/11 11:40:06;;;;;;;6.45;2.30;;;13.70;80.60;;;;;;5030907;28;20036;-70
2022/04/11 11:42:36;;;;;;;8.23;3.00;;;13.80;79.40;;;;;;5062045;28;20052;-69
2022/04/11 11:45:02;;;;;;;6.20;2.50;;;13.90;78.30;;;;;;5029702;28;20044;-70
2022/04/11 11:47:29;;;;;;;6.65;2.72;;;13.80;79.60;;;;;;5069145;28;20073;-70
2022/04/11 11:50:06;;;;;;;7.38;2.38;;;14.00;80.60;;;;;;5034880;28;20074;-69
2022/04/11 11:52:32;;;;;;;7.63;2.50;;;14.20;80.40;;;;;;5058990;28;20106;-70
2022/04/11 11:54:58;;;;;;;6.53;2.25;;;14.30;77.20;;;;;;5049253;28;20044;-69
2022/04/11 11:57:25;;;;;;;11.63;2.70;;;14.20;79.60;;;;;;5045711;28;20165;-70
2022/04/11 11:59:55;;;;;;;7.65;2.30;;;14.30;73.70;;;;;;5071034;28;20582;-70
2022/04/11 12:05:24;;;;;;;9.02;2.50;;;14.20;73.60;;;;;;5052278;28;20097;-70
2022/04/11 12:08:13;;;;;;;7.00;2.72;;;14.10;72.20;;;;;;5046709;28;20100;-69
2022/04/11 12:10:46;;;;;;;10.30;2.72;;;14.10;72.80;;;;;;5044809;28;20075;-70
2022/04/11 12:13:27;;;;;;;9.43;2.60;;;14.10;72.30;;;;;;5048710;28;20049;-69
2022/04/11 12:16:04;;;;;;;5.53;1.98;;;14.10;74.30;;;;;;5043653;28;20044;-69
2022/04/11 12:18:52;;;;;;;7.07;2.65;;;14.20;73.00;;;;;;5050610;28;20444;-69
2022/04/11 12:21:27;;;;;;;10.20;2.78;;;14.20;75.80;;;;;;5080952;28;20107;-69
2022/04/11 12:23:53;;;;;;;8.88;3.15;;;14.30;73.30;;;;;;5077227;28;20040;-69
2022/04/11 12:26:26;;;;;;;7.22;2.13;;;14.30;71.50;;;;;;5045968;28;20397;-70
2022/04/11 12:28:52;;;;;;;8.70;2.80;;;14.30;72.30;;;;;;5064012;28;20054;-70
2022/04/11 12:31:18;;;;;;;9.52;2.50;;;14.20;72.90;;;;;;5059001;28;20036;-70
2022/04/11 12:33:49;;;;;;;8.52;2.58;;;14.20;72.00;;;;;;5061542;28;20127;-70
2022/04/11 12:36:28;;;;;;;8.45;2.10;;;14.00;70.40;;;;;;5079065;28;20177;-70
2022/04/11 12:38:59;;;;;;;5.47;2.25;;;14.00;71.70;;;;;;5050797;28;20048;-70
2022/04/11 12:41:40;;;;;;;7.63;2.55;;;14.00;67.90;;;;;;5048339;28;20052;-70
2022/04/11 12:44:31;;;;;;;7.95;2.55;;;13.90;70.50;;;;;;5051775;28;20298;-71
2022/04/11 12:46:57;;;;;;;6.18;2.50;;;14.00;74.20;;;;;;5046449;28;20126;-69
2022/04/11 12:49:24;;;;;;;5.40;2.53;;;14.10;73.80;;;;;;5053877;28;20493;-69
2022/04/11 12:52:00;;;;;;;6.53;2.15;;;14.20;74.20;;;;;;5075912;28;20051;-69
2022/04/11 12:54:47;;;;;;;6.65;2.90;;;14.20;74.40;;;;;;5043785;28;20397;-69
2022/04/11 12:57:26;;;;;;;6.88;2.50;;;14.20;74.50;;;;;;5045115;28;20047;-69
2022/04/11 12:59:53;;;;;;;8.90;2.75;;;14.10;73.70;;;;;;5070573;28;20495;-69